CheckWX is a tool to help pilots better visualize weather data.  It is not intended as a substitute for an official pre-flight weather briefing.

22:27:41 UTC

KHUL METAR
Houlton International Airport
Houlton, Maine, USA
Current

35 mins ago

KHUL 262153Z AUTO 20009G15KT 10SM CLR 28/14 A3004 RMK AO2 SLP171 T02830144
Observed
May-26 @ 21:53 UTC
Wind
  • 200° at 9 KTS
  • Gusting to 15 KTS
Visibility
Flight Rules
VFR
Cloud Levels
  • Clear skies
Temperature
28°C / 82°F
Dewpoint
14°C / 57°F
Humidity
42%
Altimeter
30.04" Hg
Pressure
1017.32 hPa
Previous

2 hours ago

KHUL 262053Z AUTO 22010KT 10SM FEW060 28/15 A3005 RMK AO2 SLP174 T02830150 56009
Observed
May-26 @ 20:53 UTC
Wind
  • 220° at 10 KTS
Visibility
Flight Rules
VFR
Cloud Levels
  • Few at 6,000' AGL
Temperature
28°C / 82°F
Dewpoint
15°C / 59°F
Humidity
45%
Altimeter
30.05" Hg
Pressure
1017.62 hPa
Previous

3 hours ago

KHUL 261953Z AUTO 24010G15KT 10SM CLR 28/14 A3005 RMK AO2 SLP175 T02830144
Observed
May-26 @ 19:53 UTC
Wind
  • 240° at 10 KTS
  • Gusting to 15 KTS
Visibility
Flight Rules
VFR
Cloud Levels
  • Clear skies
Temperature
28°C / 82°F
Dewpoint
14°C / 57°F
Humidity
42%
Altimeter
30.05" Hg
Pressure
1017.62 hPa